Time;durP1;ratioP1;P1;durP2;ratioP2;P2;SDS_P1;SDS_P2;PMS_P1;PMS_P2;Temp;Humidity;BMP_temperature;BMP_pressure;BME280_temperature;BME280_humidity;BME280_pressure;Samples;Min_cycle;Max_cycle;Signal;HPM_P1;HPM_P2
2021/10/31 00:00:39;;;;;;;42.60;18.67;;;;;;;;;;6218754;28;20120;-80
2021/10/31 00:03:41;;;;;;;40.92;19.40;;;;;;;;;;6217622;28;20045;-82
2021/10/31 00:06:42;;;;;;;41.00;19.13;;;;;;;;;;6244870;28;20072;-84
2021/10/31 00:09:44;;;;;;;42.60;19.55;;;;;;;;;;6243487;28;20128;-81
2021/10/31 00:12:46;;;;;;;40.35;19.63;;;;;;;;;;6242436;28;20606;-80
2021/10/31 00:15:48;;;;;;;40.42;19.17;;;;;;;;;;6241358;28;20048;-79
2021/10/31 00:18:49;;;;;;;36.80;18.38;;;;;;;;;;6225927;28;20053;-83
2021/10/31 00:21:51;;;;;;;39.50;19.67;;;;;;;;;;6244065;28;20042;-82
2021/10/31 00:24:52;;;;;;;41.20;19.80;;;;;;;;;;6242837;28;20051;-85
2021/10/31 00:27:54;;;;;;;40.42;19.50;;;;;;;;;;6241043;28;20056;-82
2021/10/31 00:30:56;;;;;;;37.97;18.58;;;;;;;;;;6244178;28;20065;-84
2021/10/31 00:33:58;;;;;;;39.53;18.75;;;;;;;;;;6224282;28;20049;-84
2021/10/31 00:36:59;;;;;;;39.47;19.05;;;;;;;;;;6245258;28;20529;-84
2021/10/31 00:40:01;;;;;;;38.58;17.90;;;;;;;;;;6246365;28;20119;-82
2021/10/31 00:43:03;;;;;;;38.42;18.25;;;;;;;;;;6241561;28;20042;-84
2021/10/31 00:46:04;;;;;;;36.67;18.58;;;;;;;;;;6242522;28;20049;-82
2021/10/31 00:49:06;;;;;;;38.28;18.52;;;;;;;;;;6236812;28;20046;-83
2021/10/31 00:52:10;;;;;;;40.08;18.77;;;;;;;;;;6237795;28;20128;-82
2021/10/31 00:55:14;;;;;;;39.08;18.48;;;;;;;;;;6243242;28;20049;-82
2021/10/31 00:58:16;;;;;;;35.60;18.45;;;;;;;;;;6240691;28;20041;-81
2021/10/31 01:01:19;;;;;;;37.10;18.83;;;;;;;;;;6243669;28;20084;-83
2021/10/31 01:04:23;;;;;;;;;;;;;;;;;;6234534;28;20050;-81
2021/10/31 01:07:49;;;;;;;36.08;18.52;;;;;;;;;;6223093;28;19935;-85
2021/10/31 01:11:03;;;;;;;42.28;19.90;;;;;;;;;;6241794;28;20069;-82
2021/10/31 01:14:23;;;;;;;36.38;17.88;;;;;;;;;;6240277;28;20499;-83
2021/10/31 01:17:52;;;;;;;38.35;18.48;;;;;;;;;;6242351;28;20614;-84
2021/10/31 01:21:12;;;;;;;37.53;18.20;;;;;;;;;;6233806;28;20041;-81
2021/10/31 01:24:35;;;;;;;38.38;18.15;;;;;;;;;;6243710;28;20061;-81
2021/10/31 01:28:15;;;;;;;40.80;19.45;;;;;;;;;;6246132;28;20046;-82
2021/10/31 01:31:35;;;;;;;40.10;20.63;;;;;;;;;;6247306;28;20044;-82
2021/10/31 01:34:57;;;;;;;37.60;19.42;;;;;;;;;;6226511;28;20045;-82
2021/10/31 01:38:37;;;;;;;41.10;20.08;;;;;;;;;;6229508;28;20052;-82
2021/10/31 01:41:49;;;;;;;40.65;19.67;;;;;;;;;;6224427;28;20046;-80
2021/10/31 01:45:19;;;;;;;37.28;19.55;;;;;;;;;;6245170;28;20041;-81
2021/10/31 01:48:44;;;;;;;40.25;19.90;;;;;;;;;;6251983;28;20049;-84
2021/10/31 01:51:55;;;;;;;39.67;19.33;;;;;;;;;;6221252;28;20128;-81
2021/10/31 01:55:02;;;;;;;40.35;20.23;;;;;;;;;;6197095;28;20042;-84
2021/10/31 01:58:05;;;;;;;44.78;20.08;;;;;;;;;;6194557;28;20041;-80
2021/10/31 02:01:10;;;;;;;42.10;21.05;;;;;;;;;;6222596;28;20046;-81
2021/10/31 02:04:14;;;;;;;42.35;20.90;;;;;;;;;;6216985;28;20065;-83
2021/10/31 02:07:19;;;;;;;37.15;18.35;;;;;;;;;;6200519;28;20052;-83
2021/10/31 02:10:23;;;;;;;33.50;17.00;;;;;;;;;;6219728;28;20038;-82
2021/10/31 02:13:26;;;;;;;41.58;19.42;;;;;;;;;;6222739;28;20517;-82
2021/10/31 02:16:29;;;;;;;39.50;21.05;;;;;;;;;;6234760;28;20095;-81
2021/10/31 02:19:43;;;;;;;40.10;20.50;;;;;;;;;;6233565;28;20518;-83
2021/10/31 02:22:53;;;;;;;43.53;19.55;;;;;;;;;;6219112;28;20132;-84
2021/10/31 02:25:56;;;;;;;38.50;19.67;;;;;;;;;;6218805;28;20053;-83
2021/10/31 02:29:00;;;;;;;41.53;19.37;;;;;;;;;;6199017;28;20042;-82
2021/10/31 02:32:01;;;;;;;49.22;20.92;;;;;;;;;;6216062;28;20437;-81
2021/10/31 02:35:08;;;;;;;44.58;19.85;;;;;;;;;;6206723;28;20042;-83
2021/10/31 02:38:09;;;;;;;40.88;19.77;;;;;;;;;;6211328;28;20053;-81
2021/10/31 02:41:12;;;;;;;42.45;20.65;;;;;;;;;;6215864;28;20411;-80
2021/10/31 02:44:13;;;;;;;41.47;19.17;;;;;;;;;;6211579;28;20046;-81
2021/10/31 02:47:25;;;;;;;39.45;19.85;;;;;;;;;;6215460;28;20042;-82
2021/10/31 02:50:35;;;;;;;37.35;18.95;;;;;;;;;;6214515;28;20141;-81
2021/10/31 02:53:42;;;;;;;43.08;19.38;;;;;;;;;;6215481;28;20038;-81
2021/10/31 02:56:58;;;;;;;46.08;20.27;;;;;;;;;;6217567;28;20133;-80
2021/10/31 03:00:06;;;;;;;41.17;19.25;;;;;;;;;;6198299;28;20042;-80
2021/10/31 03:03:08;;;;;;;38.78;18.95;;;;;;;;;;6215537;28;20052;-82
2021/10/31 03:06:11;;;;;;;48.72;22.33;;;;;;;;;;6214299;28;20072;-80
2021/10/31 03:09:16;;;;;;;40.05;19.15;;;;;;;;;;6216280;28;20046;-80
2021/10/31 03:12:19;;;;;;;41.30;19.83;;;;;;;;;;6209941;28;20082;-82
2021/10/31 03:15:23;;;;;;;42.75;19.42;;;;;;;;;;6205488;28;20384;-80
2021/10/31 03:18:24;;;;;;;40.05;18.95;;;;;;;;;;6213214;28;20740;-81
2021/10/31 03:21:26;;;;;;;40.78;19.88;;;;;;;;;;6230464;28;20056;-79
2021/10/31 03:24:36;;;;;;;42.38;18.83;;;;;;;;;;6174080;28;20053;-80
2021/10/31 03:27:38;;;;;;;40.10;18.58;;;;;;;;;;6216630;28;20098;-81
2021/10/31 03:30:39;;;;;;;38.42;19.00;;;;;;;;;;6221063;28;20116;-81
2021/10/31 03:33:41;;;;;;;38.72;19.73;;;;;;;;;;6211898;28;20068;-82
2021/10/31 03:36:43;;;;;;;43.60;20.00;;;;;;;;;;6215040;28;20123;-81
2021/10/31 03:39:45;;;;;;;39.67;18.73;;;;;;;;;;6241780;28;20053;-81
2021/10/31 03:42:47;;;;;;;38.20;18.63;;;;;;;;;;6223314;28;20053;-80
2021/10/31 03:45:51;;;;;;;41.33;18.88;;;;;;;;;;6218452;28;20125;-79
2021/10/31 03:48:52;;;;;;;39.70;19.30;;;;;;;;;;6214251;28;20065;-80
2021/10/31 03:51:54;;;;;;;42.78;20.13;;;;;;;;;;6214120;28;20466;-84
2021/10/31 03:54:56;;;;;;;38.03;19.23;;;;;;;;;;6213963;28;20096;-81
2021/10/31 03:57:58;;;;;;;44.63;21.35;;;;;;;;;;6213724;28;20057;-80
2021/10/31 04:01:00;;;;;;;46.05;21.23;;;;;;;;;;6216994;28;20056;-82
2021/10/31 04:04:03;;;;;;;40.63;19.38;;;;;;;;;;6213504;28;20180;-81
2021/10/31 04:07:05;;;;;;;38.33;19.10;;;;;;;;;;6189453;28;20046;-83
2021/10/31 04:10:06;;;;;;;41.78;19.40;;;;;;;;;;6190560;28;20496;-82
2021/10/31 04:13:08;;;;;;;39.72;18.50;;;;;;;;;;6189605;28;20393;-82
2021/10/31 04:16:10;;;;;;;41.88;19.60;;;;;;;;;;6210292;28;20168;-81
2021/10/31 04:19:12;;;;;;;38.70;18.42;;;;;;;;;;6196710;28;20058;-81
2021/10/31 04:22:13;;;;;;;40.13;19.33;;;;;;;;;;6213030;28;20064;-81
2021/10/31 04:25:16;;;;;;;43.90;20.45;;;;;;;;;;6213727;28;20042;-81
2021/10/31 04:28:18;;;;;;;38.70;19.50;;;;;;;;;;6214089;28;20041;-81
2021/10/31 04:31:20;;;;;;;43.92;20.92;;;;;;;;;;6197111;28;20046;-82
2021/10/31 04:34:22;;;;;;;46.17;20.40;;;;;;;;;;6212868;28;20128;-81
2021/10/31 04:37:24;;;;;;;50.50;21.38;;;;;;;;;;6200449;28;20510;-80
2021/10/31 04:40:28;;;;;;;53.80;22.23;;;;;;;;;;6213583;28;20050;-81
2021/10/31 04:43:30;;;;;;;54.13;22.33;;;;;;;;;;6200968;28;20448;-82
2021/10/31 04:46:32;;;;;;;53.50;22.08;;;;;;;;;;6180999;28;20049;-81
2021/10/31 04:49:34;;;;;;;49.65;21.55;;;;;;;;;;6192643;28;20154;-82
2021/10/31 04:52:35;;;;;;;48.28;20.95;;;;;;;;;;6175422;28;20053;-82
2021/10/31 04:55:38;;;;;;;52.42;21.92;;;;;;;;;;6187451;28;20046;-81
2021/10/31 04:58:40;;;;;;;53.00;22.27;;;;;;;;;;6188669;28;20173;-81
2021/10/31 05:01:43;;;;;;;48.05;21.35;;;;;;;;;;6172086;28;20042;-80
2021/10/31 05:04:45;;;;;;;50.03;21.85;;;;;;;;;;6211086;28;20052;-79
2021/10/31 05:07:49;;;;;;;50.53;22.25;;;;;;;;;;6195417;28;20050;-80
2021/10/31 05:10:50;;;;;;;;;;;;;;;;;;6211150;28;20169;-80
2021/10/31 05:13:52;;;;;;;46.53;20.38;;;;;;;;;;6200326;28;19925;-81
2021/10/31 05:16:56;;;;;;;48.92;20.45;;;;;;;;;;6211124;28;20360;-80
2021/10/31 05:19:57;;;;;;;46.40;21.27;;;;;;;;;;6189808;28;20050;-81
2021/10/31 05:22:59;;;;;;;44.95;20.30;;;;;;;;;;6211950;28;20046;-81
2021/10/31 05:26:01;;;;;;;42.35;19.83;;;;;;;;;;6216274;28;20034;-80
2021/10/31 05:29:02;;;;;;;47.13;20.85;;;;;;;;;;6217380;28;20049;-83
2021/10/31 05:32:04;;;;;;;43.83;21.27;;;;;;;;;;6241120;28;20037;-79
2021/10/31 05:35:09;;;;;;;48.90;20.17;;;;;;;;;;6212487;28;20053;-83
2021/10/31 05:38:13;;;;;;;46.80;20.83;;;;;;;;;;6221396;28;20044;-83
2021/10/31 05:41:14;;;;;;;42.78;19.92;;;;;;;;;;6216353;28;20046;-82
2021/10/31 05:44:16;;;;;;;46.63;20.48;;;;;;;;;;6194628;28;20184;-82
2021/10/31 05:47:18;;;;;;;43.95;19.75;;;;;;;;;;6203698;28;20045;-82
2021/10/31 05:50:20;;;;;;;45.03;20.00;;;;;;;;;;6204589;28;20046;-80
2021/10/31 05:53:22;;;;;;;48.08;19.83;;;;;;;;;;6187896;28;20050;-82
2021/10/31 05:56:24;;;;;;;46.73;20.10;;;;;;;;;;6189218;28;20527;-83
2021/10/31 05:59:25;;;;;;;46.75;19.90;;;;;;;;;;6219493;28;20045;-84
2021/10/31 06:02:27;;;;;;;44.33;19.30;;;;;;;;;;6237777;28;20535;-81
2021/10/31 06:05:30;;;;;;;46.50;18.88;;;;;;;;;;6195749;28;20057;-82
2021/10/31 06:08:31;;;;;;;44.67;19.75;;;;;;;;;;6234147;28;20124;-81
2021/10/31 06:11:34;;;;;;;47.63;20.67;;;;;;;;;;6230631;28;20054;-82
2021/10/31 06:14:36;;;;;;;46.13;19.77;;;;;;;;;;6212873;28;20042;-81
2021/10/31 06:17:38;;;;;;;44.20;19.83;;;;;;;;;;6215897;28;20478;-82
2021/10/31 06:20:41;;;;;;;45.23;19.33;;;;;;;;;;6223319;28;20137;-80
2021/10/31 06:23:42;;;;;;;42.88;19.27;;;;;;;;;;6216878;28;20080;-81
2021/10/31 06:26:44;;;;;;;43.88;19.83;;;;;;;;;;6217935;28;20049;-80
2021/10/31 06:29:45;;;;;;;42.28;19.35;;;;;;;;;;6208288;28;20509;-82
2021/10/31 06:32:49;;;;;;;45.53;20.63;;;;;;;;;;6213908;28;20196;-82
2021/10/31 06:35:50;;;;;;;;;;;;;;;;;;6214943;28;20559;-83
2021/10/31 06:38:52;;;;;;;43.25;18.67;;;;;;;;;;6222451;28;19988;-80
2021/10/31 06:41:54;;;;;;;45.28;20.33;;;;;;;;;;6214691;28;20053;-81
2021/10/31 06:44:56;;;;;;;43.63;19.67;;;;;;;;;;6223387;28;20076;-81
2021/10/31 06:47:57;;;;;;;41.30;18.40;;;;;;;;;;6239296;28;20068;-81
2021/10/31 06:50:59;;;;;;;40.08;19.27;;;;;;;;;;6221705;28;20069;-83
2021/10/31 06:54:01;;;;;;;43.03;19.50;;;;;;;;;;6216624;28;20053;-80
2021/10/31 06:57:04;;;;;;;46.30;20.02;;;;;;;;;;6214466;28;20042;-81
2021/10/31 07:00:07;;;;;;;41.35;19.35;;;;;;;;;;6193435;28;20045;-81
2021/10/31 07:03:08;;;;;;;44.17;18.60;;;;;;;;;;6236611;28;20049;-81
2021/10/31 07:06:10;;;;;;;45.30;20.38;;;;;;;;;;6224807;28;20056;-82
2021/10/31 07:09:12;;;;;;;43.35;20.92;;;;;;;;;;6236776;28;20042;-85
2021/10/31 07:12:14;;;;;;;46.60;22.00;;;;;;;;;;6241206;28;20103;-81
2021/10/31 07:15:16;;;;;;;42.38;19.50;;;;;;;;;;6229312;28;20119;-80
2021/10/31 07:18:17;;;;;;;70.85;34.35;;;;;;;;;;6240761;28;20033;-79
2021/10/31 07:21:19;;;;;;;64.10;32.85;;;;;;;;;;6216883;28;20072;-81
2021/10/31 07:24:21;;;;;;;102.93;45.25;;;;;;;;;;6213242;28;20073;-80
2021/10/31 07:27:22;;;;;;;97.93;45.08;;;;;;;;;;6197071;28;20052;-79
2021/10/31 07:30:24;;;;;;;327.58;164.38;;;;;;;;;;6228010;28;20079;-82
2021/10/31 07:33:26;;;;;;;38.70;19.05;;;;;;;;;;6238314;28;20052;-82
2021/10/31 07:36:27;;;;;;;46.88;23.55;;;;;;;;;;6211939;28;20111;-80
2021/10/31 07:39:30;;;;;;;50.40;26.10;;;;;;;;;;6216530;28;20109;-79
2021/10/31 07:42:32;;;;;;;43.42;22.58;;;;;;;;;;6212903;28;20053;-81
2021/10/31 07:45:33;;;;;;;36.83;18.65;;;;;;;;;;6214077;28;20049;-80
2021/10/31 07:48:35;;;;;;;45.50;23.58;;;;;;;;;;6199933;28;20034;-80
2021/10/31 07:51:37;;;;;;;46.20;24.88;;;;;;;;;;6186936;28;20046;-84
2021/10/31 07:54:38;;;;;;;46.88;26.15;;;;;;;;;;6192848;28;20053;-84
2021/10/31 07:57:47;;;;;;;38.75;19.23;;;;;;;;;;6198256;28;20054;-83
2021/10/31 08:00:49;;;;;;;36.58;19.20;;;;;;;;;;6177878;28;20137;-84
2021/10/31 08:03:53;;;;;;;30.08;17.15;;;;;;;;;;6213289;28;20038;-83
2021/10/31 08:06:55;;;;;;;34.10;18.48;;;;;;;;;;6234403;28;20053;-84
2021/10/31 08:09:58;;;;;;;35.83;18.52;;;;;;;;;;6220049;28;20477;-84
2021/10/31 08:13:03;;;;;;;31.70;16.33;;;;;;;;;;6214254;28;20038;-82
2021/10/31 08:16:05;;;;;;;31.17;17.35;;;;;;;;;;6178115;28;20046;-82
2021/10/31 08:19:07;;;;;;;32.97;17.48;;;;;;;;;;6207047;28;20502;-81
2021/10/31 08:22:12;;;;;;;31.38;16.52;;;;;;;;;;6230614;28;20037;-84
2021/10/31 08:25:14;;;;;;;32.83;19.58;;;;;;;;;;6236348;28;20049;-83
2021/10/31 08:28:17;;;;;;;29.35;17.98;;;;;;;;;;6212407;28;20052;-83
2021/10/31 08:31:25;;;;;;;23.02;13.52;;;;;;;;;;6181744;28;20061;-83
2021/10/31 08:34:27;;;;;;;18.13;11.00;;;;;;;;;;6214979;28;20691;-83
2021/10/31 08:37:28;;;;;;;17.48;9.50;;;;;;;;;;6214512;28;20048;-83
2021/10/31 08:40:30;;;;;;;16.23;9.30;;;;;;;;;;6215009;28;20049;-81
2021/10/31 08:43:32;;;;;;;18.20;12.93;;;;;;;;;;6208181;28;20123;-82
2021/10/31 08:46:35;;;;;;;18.50;10.13;;;;;;;;;;6223305;28;20033;-83
2021/10/31 08:49:36;;;;;;;16.67;9.95;;;;;;;;;;6207717;28;20043;-84
2021/10/31 08:52:39;;;;;;;26.23;18.23;;;;;;;;;;6190031;28;20045;-83
2021/10/31 08:55:41;;;;;;;18.92;12.15;;;;;;;;;;6216786;28;20064;-80
2021/10/31 08:58:43;;;;;;;21.88;11.90;;;;;;;;;;6229985;28;20695;-82
2021/10/31 09:01:46;;;;;;;16.73;10.80;;;;;;;;;;6207730;28;20120;-83
2021/10/31 09:04:48;;;;;;;23.27;14.23;;;;;;;;;;6221847;28;20046;-82
2021/10/31 09:07:49;;;;;;;21.52;13.18;;;;;;;;;;6198720;28;20056;-82
2021/10/31 09:10:52;;;;;;;67.85;36.10;;;;;;;;;;6214703;28;20045;-82
2021/10/31 09:13:54;;;;;;;21.58;12.63;;;;;;;;;;6209554;28;20136;-82
2021/10/31 09:16:56;;;;;;;23.67;15.38;;;;;;;;;;6216362;28;20053;-82
2021/10/31 09:19:57;;;;;;;33.75;20.77;;;;;;;;;;6208771;28;20046;-83
2021/10/31 09:23:01;;;;;;;35.50;22.77;;;;;;;;;;6239489;28;20458;-82
2021/10/31 09:26:04;;;;;;;47.60;31.90;;;;;;;;;;6242299;28;20107;-84
2021/10/31 09:29:06;;;;;;;27.83;16.95;;;;;;;;;;6198446;28;20424;-83
2021/10/31 09:32:08;;;;;;;28.92;19.08;;;;;;;;;;6199458;28;20053;-80
2021/10/31 09:35:09;;;;;;;25.38;15.18;;;;;;;;;;6199983;28;20479;-83
2021/10/31 09:38:11;;;;;;;24.98;16.15;;;;;;;;;;6193169;28;20053;-83
2021/10/31 09:41:14;;;;;;;24.08;14.38;;;;;;;;;;6196851;28;20045;-81
2021/10/31 09:47:24;;;;;;;33.15;22.02;;;;;;;;;;6200137;28;20480;-82
2021/10/31 09:50:29;;;;;;;33.03;22.45;;;;;;;;;;6202318;28;20136;-80
2021/10/31 09:53:30;;;;;;;28.15;16.83;;;;;;;;;;6201690;28;20046;-81
2021/10/31 09:56:35;;;;;;;29.05;17.35;;;;;;;;;;6197076;28;20050;-81
2021/10/31 09:59:43;;;;;;;25.75;15.68;;;;;;;;;;6214619;28;20073;-82
2021/10/31 10:06:11;;;;;;;25.60;16.05;;;;;;;;;;6243121;28;20057;-82
2021/10/31 10:09:13;;;;;;;30.67;19.42;;;;;;;;;;6243291;28;20088;-82
2021/10/31 10:12:17;;;;;;;40.67;25.00;;;;;;;;;;6252515;28;20111;-82
2021/10/31 10:15:18;;;;;;;36.53;22.38;;;;;;;;;;6235879;28;20042;-82
2021/10/31 10:18:31;;;;;;;27.58;17.55;;;;;;;;;;6218000;28;20061;-84
2021/10/31 10:21:34;;;;;;;27.15;16.38;;;;;;;;;;6226425;28;20049;-83
2021/10/31 10:24:59;;;;;;;27.17;17.33;;;;;;;;;;6192782;28;20121;-83
2021/10/31 10:28:01;;;;;;;26.98;17.67;;;;;;;;;;6203959;28;20411;-83
2021/10/31 10:31:29;;;;;;;26.20;17.50;;;;;;;;;;6220141;28;20120;-79
2021/10/31 10:34:49;;;;;;;28.67;18.38;;;;;;;;;;6219019;28;20049;-82
2021/10/31 10:37:53;;;;;;;27.95;17.42;;;;;;;;;;6219554;28;20046;-83
2021/10/31 10:40:54;;;;;;;27.10;17.88;;;;;;;;;;6220426;28;20128;-82
2021/10/31 10:43:56;;;;;;;29.33;17.63;;;;;;;;;;6214660;28;20046;-81
2021/10/31 10:47:04;;;;;;;23.55;15.80;;;;;;;;;;6222002;28;20056;-83
2021/10/31 10:50:13;;;;;;;19.20;13.10;;;;;;;;;;6218292;28;20049;-82
2021/10/31 10:53:19;;;;;;;18.73;13.05;;;;;;;;;;6221176;28;20503;-82
2021/10/31 10:56:20;;;;;;;19.23;12.23;;;;;;;;;;6201469;28;20500;-81
2021/10/31 10:59:23;;;;;;;15.23;11.68;;;;;;;;;;6211170;28;20072;-82
2021/10/31 11:02:27;;;;;;;14.10;10.32;;;;;;;;;;6179096;28;20154;-82
2021/10/31 11:05:38;;;;;;;13.98;10.18;;;;;;;;;;6204317;28;20076;-83
2021/10/31 11:08:39;;;;;;;11.30;9.02;;;;;;;;;;6211830;28;20122;-80
2021/10/31 11:11:41;;;;;;;15.73;11.18;;;;;;;;;;6219183;28;20068;-81
2021/10/31 11:14:49;;;;;;;10.68;8.25;;;;;;;;;;6213470;28;20439;-82
2021/10/31 11:17:54;;;;;;;11.63;8.88;;;;;;;;;;6240507;28;20052;-82
2021/10/31 11:20:56;;;;;;;10.20;8.32;;;;;;;;;;6198280;28;20053;-83
2021/10/31 11:23:58;;;;;;;10.18;8.38;;;;;;;;;;6193046;28;20054;-84
2021/10/31 11:27:01;;;;;;;11.30;8.80;;;;;;;;;;6198271;28;20069;-83
2021/10/31 11:30:04;;;;;;;11.30;9.40;;;;;;;;;;6203421;28;20045;-82
2021/10/31 11:33:08;;;;;;;10.75;8.32;;;;;;;;;;6219517;28;20467;-83
2021/10/31 11:36:10;;;;;;;10.95;8.38;;;;;;;;;;6216685;28;20041;-84
2021/10/31 11:39:12;;;;;;;12.73;8.77;;;;;;;;;;6219873;28;20135;-84
2021/10/31 11:42:16;;;;;;;8.45;7.13;;;;;;;;;;6216318;28;20042;-85
2021/10/31 11:45:30;;;;;;;11.40;7.95;;;;;;;;;;6238728;28;20083;-83
2021/10/31 11:48:34;;;;;;;9.35;7.72;;;;;;;;;;6222644;28;20085;-84
2021/10/31 11:51:44;;;;;;;11.60;8.18;;;;;;;;;;6206268;28;20073;-85
2021/10/31 11:55:46;;;;;;;8.40;5.82;;;;;;;;;;6208344;28;20038;-84
2021/10/31 11:58:52;;;;;;;8.25;6.60;;;;;;;;;;6173509;28;20127;-83
2021/10/31 12:01:56;;;;;;;10.35;8.85;;;;;;;;;;6203172;28;20126;-84
2021/10/31 12:05:35;;;;;;;7.75;5.50;;;;;;;;;;6190263;28;20061;-84
2021/10/31 12:08:53;;;;;;;7.53;5.68;;;;;;;;;;6197854;28;20054;-82
2021/10/31 12:11:54;;;;;;;8.55;7.18;;;;;;;;;;6216997;28;20148;-84
2021/10/31 12:14:57;;;;;;;8.65;7.40;;;;;;;;;;6209133;28;20175;-80
2021/10/31 12:18:05;;;;;;;6.00;4.18;;;;;;;;;;6225507;28;20049;-82
2021/10/31 12:21:16;;;;;;;8.13;6.47;;;;;;;;;;6205814;28;20044;-84
2021/10/31 12:24:19;;;;;;;3.65;2.97;;;;;;;;;;6242374;28;20123;-82
2021/10/31 12:27:27;;;;;;;5.55;4.20;;;;;;;;;;6241306;28;20060;-85
2021/10/31 12:30:38;;;;;;;9.07;6.80;;;;;;;;;;6262358;28;20048;-82
2021/10/31 12:34:10;;;;;;;11.45;7.30;;;;;;;;;;6235082;28;20052;-81
2021/10/31 12:37:32;;;;;;;17.25;10.73;;;;;;;;;;6238498;28;20051;-83
2021/10/31 12:41:07;;;;;;;11.38;7.47;;;;;;;;;;6231743;28;20087;-81
2021/10/31 12:44:14;;;;;;;7.57;5.72;;;;;;;;;;6199499;28;20411;-82
2021/10/31 12:47:23;;;;;;;13.23;10.15;;;;;;;;;;6208578;28;20046;-81
2021/10/31 12:50:27;;;;;;;4.45;3.97;;;;;;;;;;6215506;28;20045;-80
2021/10/31 12:53:41;;;;;;;6.65;4.47;;;;;;;;;;6225452;28;20132;-83
2021/10/31 12:56:42;;;;;;;12.35;7.93;;;;;;;;;;6218240;28;20055;-82
2021/10/31 12:59:53;;;;;;;4.57;4.18;;;;;;;;;;6223314;28;20084;-81
2021/10/31 13:03:02;;;;;;;4.13;3.72;;;;;;;;;;6210902;28;20122;-81
2021/10/31 13:06:03;;;;;;;3.78;3.38;;;;;;;;;;6221583;28;20064;-84
2021/10/31 13:09:05;;;;;;;5.68;4.25;;;;;;;;;;6221750;28;20060;-82
2021/10/31 13:12:28;;;;;;;7.55;5.95;;;;;;;;;;6198228;28;20684;-81
2021/10/31 13:15:32;;;;;;;8.00;6.03;;;;;;;;;;6221866;28;20048;-84
2021/10/31 13:18:34;;;;;;;57.35;23.70;;;;;;;;;;6213621;28;20091;-81
2021/10/31 13:21:41;;;;;;;10.50;6.53;;;;;;;;;;6220721;28;20054;-84
2021/10/31 13:24:47;;;;;;;8.15;7.28;;;;;;;;;;6201748;28;20524;-83
2021/10/31 13:27:48;;;;;;;7.22;4.53;;;;;;;;;;6213582;28;20133;-82
2021/10/31 13:31:06;;;;;;;5.70;4.03;;;;;;;;;;6217641;28;20439;-81
2021/10/31 13:34:08;;;;;;;5.25;3.90;;;;;;;;;;6217833;28;20793;-84
2021/10/31 13:37:11;;;;;;;3.15;2.85;;;;;;;;;;6219694;28;20049;-83
2021/10/31 13:40:14;;;;;;;4.68;3.58;;;;;;;;;;6217908;28;20042;-83
2021/10/31 13:43:15;;;;;;;5.13;4.20;;;;;;;;;;6214446;28;20136;-82
2021/10/31 13:46:18;;;;;;;3.15;2.70;;;;;;;;;;6242900;28;20055;-81
2021/10/31 13:49:21;;;;;;;4.55;3.13;;;;;;;;;;6258915;28;20132;-82
2021/10/31 13:52:24;;;;;;;2.08;1.63;;;;;;;;;;6226256;28;20100;-84
2021/10/31 13:55:27;;;;;;;;;;;;;;;;;;6226048;28;20087;-81
2021/10/31 13:58:29;;;;;;;2.27;1.70;;;;;;;;;;6240919;28;19932;-83
2021/10/31 14:01:41;;;;;;;3.17;2.15;;;;;;;;;;6242108;28;20067;-81
2021/10/31 14:04:43;;;;;;;2.60;1.85;;;;;;;;;;6239111;28;20129;-84
2021/10/31 14:07:51;;;;;;;2.78;1.65;;;;;;;;;;6257949;28;20782;-84
2021/10/31 14:10:52;;;;;;;2.22;2.00;;;;;;;;;;6225122;28;20053;-82
2021/10/31 14:13:54;;;;;;;3.05;2.05;;;;;;;;;;6240850;28;20053;-82
2021/10/31 14:17:17;;;;;;;2.50;1.73;;;;;;;;;;6265006;28;20056;-81
2021/10/31 14:20:18;;;;;;;3.13;2.00;;;;;;;;;;6225655;28;20056;-83
2021/10/31 14:23:29;;;;;;;2.05;1.40;;;;;;;;;;6248488;28;20057;-83
2021/10/31 14:26:31;;;;;;;14.63;8.60;;;;;;;;;;6242322;28;20059;-79
2021/10/31 14:29:33;;;;;;;13.90;9.60;;;;;;;;;;6239019;28;20049;-81
2021/10/31 14:33:05;;;;;;;8.10;6.25;;;;;;;;;;6243959;28;20059;-82
2021/10/31 14:36:12;;;;;;;17.00;12.55;;;;;;;;;;6238050;28;20045;-82
2021/10/31 14:39:14;;;;;;;15.73;11.38;;;;;;;;;;6241672;28;20406;-83
2021/10/31 14:42:31;;;;;;;5.95;4.70;;;;;;;;;;6234310;28;20054;-81
2021/10/31 14:45:33;;;;;;;4.25;3.85;;;;;;;;;;6244029;28;20155;-82
2021/10/31 14:48:38;;;;;;;3.45;3.15;;;;;;;;;;6237767;28;20041;-82
2021/10/31 14:51:42;;;;;;;3.42;1.77;;;;;;;;;;6241002;28;20045;-83
2021/10/31 14:54:51;;;;;;;1.75;1.33;;;;;;;;;;6236422;28;20046;-81
2021/10/31 14:57:55;;;;;;;1.83;1.40;;;;;;;;;;6238013;28;20414;-81
2021/10/31 15:00:58;;;;;;;1.95;1.30;;;;;;;;;;6237167;28;20045;-82
2021/10/31 15:04:00;;;;;;;2.70;2.30;;;;;;;;;;6238131;28;20044;-82
2021/10/31 15:07:02;;;;;;;8.73;7.82;;;;;;;;;;6242840;28;20803;-83
2021/10/31 15:10:07;;;;;;;4.85;3.92;;;;;;;;;;6244112;28;20635;-84
2021/10/31 15:13:09;;;;;;;4.70;2.95;;;;;;;;;;6242544;28;20521;-81
2021/10/31 15:16:11;;;;;;;1.95;1.67;;;;;;;;;;6240609;28;20068;-85
2021/10/31 15:19:12;;;;;;;2.97;2.50;;;;;;;;;;6234906;28;20060;-81
2021/10/31 15:22:14;;;;;;;2.50;1.30;;;;;;;;;;6248652;28;20127;-81
2021/10/31 15:25:18;;;;;;;1.70;1.40;;;;;;;;;;6250164;28;20048;-84
2021/10/31 15:28:20;;;;;;;3.28;2.30;;;;;;;;;;6222903;28;20048;-84
2021/10/31 15:31:22;;;;;;;2.63;2.00;;;;;;;;;;6229315;28;20056;-82
2021/10/31 15:34:32;;;;;;;2.05;1.52;;;;;;;;;;6228734;28;20042;-82
2021/10/31 15:37:36;;;;;;;1.55;1.20;;;;;;;;;;6223696;28;20046;-81
2021/10/31 15:40:38;;;;;;;1.60;1.13;;;;;;;;;;6223643;28;20046;-83
2021/10/31 15:43:41;;;;;;;1.30;1.20;;;;;;;;;;6219972;28;20112;-80
2021/10/31 15:46:43;;;;;;;4.40;1.73;;;;;;;;;;6224142;28;20121;-82
2021/10/31 15:49:45;;;;;;;1.05;0.80;;;;;;;;;;6218622;28;20046;-82
2021/10/31 15:52:47;;;;;;;1.65;1.27;;;;;;;;;;6218449;28;20069;-81
2021/10/31 15:55:49;;;;;;;3.33;1.80;;;;;;;;;;6224662;28;20042;-81
2021/10/31 15:58:53;;;;;;;4.28;1.73;;;;;;;;;;6221287;28;20038;-81
2021/10/31 16:01:56;;;;;;;6.13;4.75;;;;;;;;;;6236584;28;20064;-80
2021/10/31 16:04:58;;;;;;;4.82;3.22;;;;;;;;;;6222841;28;20133;-84
2021/10/31 16:08:00;;;;;;;5.00;2.97;;;;;;;;;;6220714;28;20135;-82
2021/10/31 16:11:03;;;;;;;10.40;8.85;;;;;;;;;;6200458;28;20038;-81
2021/10/31 16:14:04;;;;;;;;;;;;;;;;;;6217606;28;20125;-86
2021/10/31 16:17:08;;;;;;;1.98;1.48;;;;;;;;;;6214130;28;20018;-82
2021/10/31 16:20:10;;;;;;;2.97;1.60;;;;;;;;;;6201327;28;20150;-82
2021/10/31 16:23:13;;;;;;;3.38;2.50;;;;;;;;;;6216369;28;20042;-82
2021/10/31 16:26:18;;;;;;;3.95;2.72;;;;;;;;;;6217598;28;20526;-82
2021/10/31 16:29:23;;;;;;;13.10;7.05;;;;;;;;;;6210035;28;20087;-83
2021/10/31 16:32:27;;;;;;;8.32;4.00;;;;;;;;;;6200217;28;20499;-82
2021/10/31 16:35:31;;;;;;;75.55;35.67;;;;;;;;;;6224306;28;20041;-84
2021/10/31 16:38:32;;;;;;;72.82;31.15;;;;;;;;;;6202856;28;20121;-82
2021/10/31 16:41:40;;;;;;;4.30;3.90;;;;;;;;;;6216480;28;20082;-85
2021/10/31 16:44:42;;;;;;;1.40;1.30;;;;;;;;;;6177333;28;20056;-84
2021/10/31 16:47:46;;;;;;;2.80;1.40;;;;;;;;;;6206169;28;20815;-82
2021/10/31 16:50:49;;;;;;;1.98;1.30;;;;;;;;;;6223053;28;20400;-81
2021/10/31 16:53:51;;;;;;;;;;;;;;;;;;6211609;28;20049;-83
2021/10/31 16:56:53;;;;;;;2.70;1.80;;;;;;;;;;6200462;28;19921;-82
2021/10/31 16:59:55;;;;;;;2.60;2.13;;;;;;;;;;6230461;28;20049;-83
2021/10/31 17:02:56;;;;;;;2.10;1.90;;;;;;;;;;6207666;28;20522;-86
2021/10/31 17:05:59;;;;;;;4.43;2.80;;;;;;;;;;6226583;28;20679;-85
2021/10/31 17:09:06;;;;;;;5.45;2.97;;;;;;;;;;6219083;28;20049;-83
2021/10/31 17:12:08;;;;;;;3.53;1.83;;;;;;;;;;6194463;28;21038;-81
2021/10/31 17:15:14;;;;;;;2.88;2.00;;;;;;;;;;6236175;28;20399;-82
2021/10/31 17:18:16;;;;;;;2.60;1.80;;;;;;;;;;6237863;28;20686;-84
2021/10/31 17:21:18;;;;;;;20.88;10.27;;;;;;;;;;6209627;28;20176;-83
2021/10/31 17:24:19;;;;;;;5.80;3.08;;;;;;;;;;6238741;28;20076;-85
2021/10/31 17:27:21;;;;;;;14.65;9.50;;;;;;;;;;6235283;28;20047;-85
2021/10/31 17:30:23;;;;;;;3.55;2.40;;;;;;;;;;6212210;28;20101;-82
2021/10/31 17:33:24;;;;;;;2.13;1.90;;;;;;;;;;6223161;28;20073;-79
2021/10/31 17:36:26;;;;;;;38.83;17.27;;;;;;;;;;6224845;28;20119;-86
2021/10/31 17:39:28;;;;;;;23.15;12.38;;;;;;;;;;6242569;28;20049;-85
2021/10/31 17:42:30;;;;;;;3.47;2.28;;;;;;;;;;6211188;28;20153;-84
2021/10/31 17:45:32;;;;;;;3.47;1.70;;;;;;;;;;6217120;28;20054;-85
2021/10/31 17:48:34;;;;;;;1.80;1.70;;;;;;;;;;6219082;28;20447;-81
2021/10/31 17:51:35;;;;;;;6.85;2.08;;;;;;;;;;6231264;28;20061;-83
2021/10/31 17:54:37;;;;;;;1.98;1.70;;;;;;;;;;6248816;28;20105;-84
2021/10/31 17:57:40;;;;;;;5.70;2.22;;;;;;;;;;6244013;28;22737;-84
2021/10/31 18:00:42;;;;;;;6.32;2.85;;;;;;;;;;6208428;28;20465;-84
2021/10/31 18:03:44;;;;;;;2.83;1.83;;;;;;;;;;6231783;28;20038;-83
2021/10/31 18:06:45;;;;;;;3.25;2.20;;;;;;;;;;6220320;28;20061;-84
2021/10/31 18:09:47;;;;;;;3.55;1.60;;;;;;;;;;6243051;28;20069;-84
2021/10/31 18:12:51;;;;;;;2.83;1.80;;;;;;;;;;6247165;28;20109;-84
2021/10/31 18:15:52;;;;;;;2.47;1.60;;;;;;;;;;6215623;28;20057;-84